VOZ1493 YBBN-YBHM
Flight info
| Callsign | VOZ1493 |
|---|---|
| Flight time | 1h 18m |
| Altitude | 34000 |
| Route | BIXAD Q67 GUDSO DCT OVRON |
| Aircraft | B738/M-SDE2E3FGHIRWXY/LB1 |
Departure
| Time | 2026-04-11 08:04 |
|---|---|
| Airport | Brisbane International Airport (YBBN) |
Arrival
| Time | 2026-04-11 09:23 |
|---|---|
| Airport | Hamilton Island Airport (YBHM) |
| Time | Latitude | Longitude | Altitude | Speed | Heading |
|---|---|---|---|---|---|
| 2026-04-11 07:43 | -27.38843 | 153.12005 | 21 ft | 0 kts | 294° |
| 2026-04-11 07:54 | -27.38846 | 153.12011 | 20 ft | 2 kts | 300° |
| 2026-04-11 07:54 | -27.38856 | 153.12025 | 23 ft | 3 kts | 349° |
| 2026-04-11 07:54 | -27.38875 | 153.12026 | 22 ft | 2 kts | 354° |
| 2026-04-11 07:54 | -27.38884 | 153.12027 | 21 ft | 1 kts | 351° |
| 2026-04-11 07:55 | -27.38885 | 153.12028 | 21 ft | 0 kts | 351° |
| 2026-04-11 07:56 | -27.38873 | 153.12028 | 23 ft | 6 kts | 12° |
| 2026-04-11 07:57 | -27.38861 | 153.12090 | 20 ft | 14 kts | 101° |
| 2026-04-11 07:57 | -27.38892 | 153.12223 | 20 ft | 20 kts | 84° |
| 2026-04-11 07:57 | -27.38811 | 153.12296 | 20 ft | 15 kts | 27° |
| 2026-04-11 07:57 | -27.38703 | 153.12358 | 22 ft | 19 kts | 27° |
| 2026-04-11 07:58 | -27.38572 | 153.12433 | 22 ft | 23 kts | 27° |
| 2026-04-11 07:58 | -27.38420 | 153.12519 | 20 ft | 26 kts | 26° |
| 2026-04-11 07:58 | -27.38255 | 153.12614 | 22 ft | 27 kts | 27° |
| 2026-04-11 07:58 | -27.38094 | 153.12706 | 21 ft | 25 kts | 27° |
| 2026-04-11 07:59 | -27.37962 | 153.12763 | 20 ft | 13 kts | 340° |
| 2026-04-11 07:59 | -27.37904 | 153.12666 | 20 ft | 18 kts | 297° |
| 2026-04-11 07:59 | -27.37835 | 153.12516 | 20 ft | 24 kts | 297° |
| 2026-04-11 07:59 | -27.37753 | 153.12334 | 20 ft | 27 kts | 296° |
| 2026-04-11 08:00 | -27.37668 | 153.12153 | 21 ft | 25 kts | 298° |
| 2026-04-11 08:00 | -27.37593 | 153.11983 | 20 ft | 24 kts | 297° |
| 2026-04-11 08:00 | -27.37519 | 153.11823 | 20 ft | 23 kts | 296° |
| 2026-04-11 08:00 | -27.37449 | 153.11668 | 20 ft | 22 kts | 297° |
| 2026-04-11 08:01 | -27.37406 | 153.11539 | 20 ft | 11 kts | 247° |
| 2026-04-11 08:01 | -27.37473 | 153.11484 | 20 ft | 13 kts | 206° |
| 2026-04-11 08:01 | -27.37565 | 153.11432 | 20 ft | 17 kts | 207° |
| 2026-04-11 08:01 | -27.37688 | 153.11361 | 20 ft | 22 kts | 207° |
| 2026-04-11 08:02 | -27.37843 | 153.11272 | 20 ft | 27 kts | 207° |
| 2026-04-11 08:02 | -27.38025 | 153.11168 | 22 ft | 31 kts | 207° |
| 2026-04-11 08:02 | -27.38230 | 153.11051 | 21 ft | 35 kts | 207° |
| 2026-04-11 08:02 | -27.38422 | 153.10938 | 20 ft | 20 kts | 216° |
| 2026-04-11 08:03 | -27.38412 | 153.10825 | 21 ft | 16 kts | 297° |
| 2026-04-11 08:03 | -27.38364 | 153.10719 | 22 ft | 15 kts | 304° |
| 2026-04-11 08:03 | -27.38269 | 153.10702 | 23 ft | 15 kts | 27° |
| 2026-04-11 08:03 | -27.38260 | 153.10707 | 22 ft | 0 kts | 27° |
| 2026-04-11 08:04 | -27.38139 | 153.10776 | 23 ft | 59 kts | 27° |
| 2026-04-11 08:04 | -27.37519 | 153.11130 | 21 ft | 139 kts | 26° |
| 2026-04-11 08:04 | -27.36545 | 153.11679 | 441 ft | 170 kts | 26° |
| 2026-04-11 08:04 | -27.35444 | 153.12299 | 1264 ft | 177 kts | 24° |
| 2026-04-11 08:05 | -27.34404 | 153.12891 | 2553 ft | 165 kts | 25° |
| 2026-04-11 08:05 | -27.33346 | 153.13502 | 3121 ft | 184 kts | 25° |
| 2026-04-11 08:05 | -27.32099 | 153.14216 | 3364 ft | 215 kts | 24° |
| 2026-04-11 08:05 | -27.30677 | 153.15028 | 3570 ft | 243 kts | 25° |
| 2026-04-11 08:06 | -27.29078 | 153.15943 | 3796 ft | 272 kts | 25° |
| 2026-04-11 08:06 | -27.27353 | 153.16932 | 4453 ft | 282 kts | 26° |
| 2026-04-11 08:06 | -27.25601 | 153.17936 | 5325 ft | 281 kts | 26° |
| 2026-04-11 08:06 | -27.23851 | 153.18935 | 6135 ft | 283 kts | 27° |
| 2026-04-11 08:07 | -27.22683 | 153.19601 | 6611 ft | 285 kts | 27° |
| 2026-04-11 08:07 | -27.20898 | 153.20617 | 7337 ft | 288 kts | 26° |
| 2026-04-11 08:07 | -27.19092 | 153.21610 | 8037 ft | 292 kts | 20° |
| 2026-04-11 08:08 | -27.14392 | 153.22400 | 9664 ft | 299 kts | 5° |
| 2026-04-11 08:08 | -27.12321 | 153.22644 | 10339 ft | 303 kts | 4° |
| 2026-04-11 08:08 | -27.10870 | 153.22821 | 10485 ft | 318 kts | 5° |
| 2026-04-11 08:08 | -27.07833 | 153.23209 | 10712 ft | 345 kts | 5° |
| 2026-04-11 08:09 | -27.05379 | 153.23531 | 10863 ft | 364 kts | 4° |
| 2026-04-11 08:09 | -27.03655 | 153.23758 | 11054 ft | 373 kts | 5° |
| 2026-04-11 08:09 | -27.01081 | 153.24024 | 11524 ft | 377 kts | 0° |
| 2026-04-11 08:09 | -26.98458 | 153.24108 | 12124 ft | 377 kts | 359° |
| 2026-04-11 08:10 | -26.95833 | 153.24131 | 12711 ft | 378 kts | 358° |
| 2026-04-11 08:10 | -26.93184 | 153.24148 | 13243 ft | 382 kts | 358° |
| 2026-04-11 08:10 | -26.90515 | 153.24174 | 13739 ft | 385 kts | 358° |
| 2026-04-11 08:10 | -26.87831 | 153.24215 | 14212 ft | 387 kts | 358° |
| 2026-04-11 08:11 | -26.85134 | 153.24265 | 14647 ft | 389 kts | 358° |
| 2026-04-11 08:11 | -26.82417 | 153.24319 | 15055 ft | 392 kts | 358° |
| 2026-04-11 08:11 | -26.79675 | 153.24376 | 15455 ft | 395 kts | 358° |
| 2026-04-11 08:11 | -26.76917 | 153.24435 | 15891 ft | 397 kts | 358° |
| 2026-04-11 08:12 | -26.74147 | 153.24493 | 16308 ft | 399 kts | 358° |
| 2026-04-11 08:12 | -26.71359 | 153.24552 | 16602 ft | 402 kts | 358° |
| 2026-04-11 08:12 | -26.68565 | 153.24470 | 16972 ft | 400 kts | 347° |
| 2026-04-11 08:12 | -26.65897 | 153.23630 | 17357 ft | 398 kts | 339° |
| 2026-04-11 08:13 | -26.63262 | 153.22663 | 17757 ft | 399 kts | 339° |
| 2026-04-11 08:13 | -26.60611 | 153.21706 | 18103 ft | 402 kts | 339° |
| 2026-04-11 08:13 | -26.57936 | 153.20758 | 18411 ft | 404 kts | 339° |
| 2026-04-11 08:13 | -26.55290 | 153.19833 | 18733 ft | 404 kts | 339° |
| 2026-04-11 08:14 | -26.52606 | 153.18903 | 19088 ft | 405 kts | 339° |
| 2026-04-11 08:14 | -26.49905 | 153.17970 | 19408 ft | 406 kts | 339° |
| 2026-04-11 08:14 | -26.47199 | 153.17038 | 19710 ft | 408 kts | 339° |
| 2026-04-11 08:14 | -26.44477 | 153.16101 | 20012 ft | 410 kts | 339° |
| 2026-04-11 08:15 | -26.41747 | 153.15161 | 20318 ft | 411 kts | 339° |
| 2026-04-11 08:15 | -26.39009 | 153.14219 | 20640 ft | 412 kts | 339° |
| 2026-04-11 08:15 | -26.36271 | 153.13277 | 20939 ft | 413 kts | 339° |
| 2026-04-11 08:15 | -26.33513 | 153.12329 | 21234 ft | 414 kts | 339° |
| 2026-04-11 08:16 | -26.30754 | 153.11381 | 21534 ft | 416 kts | 338° |
| 2026-04-11 08:16 | -26.28038 | 153.10290 | 21821 ft | 413 kts | 332° |
| 2026-04-11 08:16 | -26.25532 | 153.08762 | 22068 ft | 410 kts | 322° |
| 2026-04-11 08:16 | -26.23200 | 153.06995 | 22311 ft | 412 kts | 322° |
| 2026-04-11 08:17 | -26.20826 | 153.05211 | 22659 ft | 411 kts | 322° |
| 2026-04-11 08:17 | -26.18443 | 153.03432 | 22933 ft | 412 kts | 322° |
| 2026-04-11 08:17 | -26.16049 | 153.01652 | 23116 ft | 415 kts | 322° |
| 2026-04-11 08:17 | -26.13636 | 152.99865 | 23332 ft | 417 kts | 322° |
| 2026-04-11 08:18 | -26.11216 | 152.98078 | 23582 ft | 418 kts | 322° |
| 2026-04-11 08:18 | -26.08792 | 152.96290 | 23790 ft | 419 kts | 322° |
| 2026-04-11 08:18 | -26.06358 | 152.94497 | 23980 ft | 420 kts | 322° |
| 2026-04-11 08:18 | -26.03920 | 152.92701 | 24156 ft | 421 kts | 322° |
| 2026-04-11 08:19 | -26.01472 | 152.90899 | 24343 ft | 422 kts | 322° |
| 2026-04-11 08:19 | -25.99018 | 152.89094 | 24536 ft | 423 kts | 322° |
| 2026-04-11 08:19 | -25.96586 | 152.87306 | 24711 ft | 424 kts | 322° |
| 2026-04-11 08:19 | -25.94121 | 152.85493 | 24878 ft | 426 kts | 322° |
| 2026-04-11 08:20 | -25.91645 | 152.83674 | 25001 ft | 428 kts | 322° |
| 2026-04-11 08:20 | -25.89157 | 152.81846 | 25155 ft | 429 kts | 322° |
| 2026-04-11 08:20 | -25.86663 | 152.80016 | 25333 ft | 430 kts | 322° |
| 2026-04-11 08:20 | -25.84160 | 152.78180 | 25511 ft | 431 kts | 322° |
| 2026-04-11 08:21 | -25.81654 | 152.76343 | 25669 ft | 432 kts | 322° |
| 2026-04-11 08:21 | -25.79144 | 152.74504 | 25840 ft | 433 kts | 322° |
| 2026-04-11 08:21 | -25.76632 | 152.72663 | 25990 ft | 434 kts | 322° |
| 2026-04-11 08:21 | -25.74109 | 152.70816 | 26141 ft | 435 kts | 322° |
| 2026-04-11 08:22 | -25.71578 | 152.68964 | 26295 ft | 436 kts | 322° |
| 2026-04-11 08:22 | -25.69043 | 152.67110 | 26445 ft | 437 kts | 322° |
| 2026-04-11 08:22 | -25.66502 | 152.65253 | 26592 ft | 438 kts | 322° |
| 2026-04-11 08:22 | -25.63955 | 152.63392 | 26728 ft | 439 kts | 322° |
| 2026-04-11 08:23 | -25.61401 | 152.61527 | 26847 ft | 440 kts | 322° |
| 2026-04-11 08:23 | -25.58839 | 152.59657 | 26946 ft | 442 kts | 322° |
| 2026-04-11 08:23 | -25.56261 | 152.57776 | 27051 ft | 444 kts | 322° |
| 2026-04-11 08:23 | -25.53680 | 152.55894 | 27193 ft | 444 kts | 322° |
| 2026-04-11 08:24 | -25.51100 | 152.54015 | 27338 ft | 445 kts | 322° |
| 2026-04-11 08:24 | -25.48511 | 152.52129 | 27471 ft | 445 kts | 322° |
| 2026-04-11 08:24 | -25.45959 | 152.50272 | 27585 ft | 446 kts | 322° |
| 2026-04-11 08:24 | -25.43355 | 152.48377 | 27704 ft | 447 kts | 322° |
| 2026-04-11 08:25 | -25.40755 | 152.46487 | 27825 ft | 448 kts | 322° |
| 2026-04-11 08:25 | -25.38148 | 152.44592 | 27930 ft | 449 kts | 322° |
| 2026-04-11 08:25 | -25.35534 | 152.42693 | 28040 ft | 450 kts | 322° |
| 2026-04-11 08:25 | -25.32914 | 152.40791 | 28181 ft | 450 kts | 322° |
| 2026-04-11 08:26 | -25.30300 | 152.38895 | 28331 ft | 450 kts | 322° |
| 2026-04-11 08:26 | -25.27679 | 152.36995 | 28465 ft | 450 kts | 322° |
| 2026-04-11 08:26 | -25.22431 | 152.33191 | 28676 ft | 452 kts | 322° |
| 2026-04-11 08:27 | -25.19804 | 152.31289 | 28909 ft | 450 kts | 322° |
| 2026-04-11 08:27 | -25.17191 | 152.29400 | 29146 ft | 448 kts | 321° |
| 2026-04-11 08:27 | -25.14615 | 152.27537 | 29325 ft | 448 kts | 321° |
| 2026-04-11 08:27 | -25.12003 | 152.25648 | 29465 ft | 449 kts | 321° |
| 2026-04-11 08:28 | -25.09395 | 152.23763 | 29642 ft | 448 kts | 321° |
| 2026-04-11 08:28 | -25.06783 | 152.21877 | 29846 ft | 447 kts | 321° |
| 2026-04-11 08:28 | -25.04181 | 152.19999 | 30050 ft | 447 kts | 321° |
| 2026-04-11 08:28 | -25.01575 | 152.18119 | 30214 ft | 446 kts | 321° |
| 2026-04-11 08:29 | -24.98982 | 152.16249 | 30389 ft | 446 kts | 321° |
| 2026-04-11 08:29 | -24.96386 | 152.14378 | 30592 ft | 444 kts | 321° |
| 2026-04-11 08:29 | -24.93804 | 152.12519 | 30782 ft | 443 kts | 321° |
| 2026-04-11 08:29 | -24.91250 | 152.10680 | 30949 ft | 443 kts | 321° |
| 2026-04-11 08:30 | -24.88671 | 152.08823 | 31134 ft | 442 kts | 321° |
| 2026-04-11 08:30 | -24.86095 | 152.06971 | 31348 ft | 441 kts | 321° |
| 2026-04-11 08:30 | -24.83526 | 152.05125 | 31546 ft | 440 kts | 321° |
| 2026-04-11 08:30 | -24.80962 | 152.03281 | 31710 ft | 440 kts | 321° |
| 2026-04-11 08:31 | -24.78399 | 152.01440 | 31884 ft | 440 kts | 321° |
| 2026-04-11 08:31 | -24.75839 | 151.99603 | 32088 ft | 438 kts | 321° |
| 2026-04-11 08:31 | -24.73290 | 151.97774 | 32304 ft | 437 kts | 321° |
| 2026-04-11 08:31 | -24.70743 | 151.95947 | 32499 ft | 436 kts | 321° |
| 2026-04-11 08:32 | -24.68198 | 151.94122 | 32681 ft | 436 kts | 321° |
| 2026-04-11 08:32 | -24.65657 | 151.92302 | 32843 ft | 436 kts | 322° |
| 2026-04-11 08:32 | -24.63150 | 151.90507 | 32986 ft | 436 kts | 322° |
| 2026-04-11 08:32 | -24.60600 | 151.88681 | 33065 ft | 438 kts | 322° |
| 2026-04-11 08:33 | -24.58043 | 151.86851 | 33210 ft | 438 kts | 322° |
| 2026-04-11 08:33 | -24.55491 | 151.85026 | 33433 ft | 437 kts | 322° |
| 2026-04-11 08:33 | -24.52940 | 151.83205 | 33679 ft | 435 kts | 322° |
| 2026-04-11 08:33 | -24.50403 | 151.81394 | 33870 ft | 434 kts | 322° |
| 2026-04-11 08:34 | -24.45313 | 151.77758 | 33935 ft | 437 kts | 322° |
| 2026-04-11 08:34 | -24.40227 | 151.74132 | 33950 ft | 435 kts | 322° |
| 2026-04-11 08:35 | -24.35187 | 151.70542 | 33942 ft | 434 kts | 322° |
| 2026-04-11 08:35 | -24.30125 | 151.66939 | 33921 ft | 433 kts | 322° |
| 2026-04-11 08:36 | -24.25065 | 151.63342 | 33932 ft | 433 kts | 322° |
| 2026-04-11 08:36 | -24.20002 | 151.59747 | 33937 ft | 433 kts | 322° |
| 2026-04-11 08:37 | -24.14940 | 151.56153 | 33938 ft | 434 kts | 322° |
| 2026-04-11 08:37 | -24.09892 | 151.52572 | 33943 ft | 435 kts | 322° |
| 2026-04-11 08:38 | -24.04800 | 151.48965 | 33944 ft | 437 kts | 322° |
| 2026-04-11 08:38 | -23.99680 | 151.45342 | 33942 ft | 438 kts | 322° |
| 2026-04-11 08:39 | -23.94548 | 151.41714 | 33930 ft | 439 kts | 322° |
| 2026-04-11 08:39 | -23.89411 | 151.38086 | 33898 ft | 440 kts | 322° |
| 2026-04-11 08:40 | -23.84257 | 151.34449 | 33893 ft | 441 kts | 323° |
| 2026-04-11 08:40 | -23.79139 | 151.30842 | 33885 ft | 442 kts | 322° |
| 2026-04-11 08:41 | -23.74000 | 151.27223 | 33896 ft | 442 kts | 323° |
| 2026-04-11 08:41 | -23.68829 | 151.23585 | 33900 ft | 442 kts | 323° |
| 2026-04-11 08:42 | -23.63652 | 151.19947 | 33899 ft | 442 kts | 323° |
| 2026-04-11 08:43 | -23.55898 | 151.14503 | 33932 ft | 442 kts | 323° |
| 2026-04-11 08:43 | -23.50717 | 151.10870 | 33928 ft | 442 kts | 323° |
| 2026-04-11 08:44 | -23.45542 | 151.07245 | 33930 ft | 443 kts | 323° |
| 2026-04-11 08:44 | -23.40362 | 151.03619 | 33925 ft | 443 kts | 323° |
| 2026-04-11 08:45 | -23.35206 | 151.00014 | 33930 ft | 443 kts | 323° |
| 2026-04-11 08:45 | -23.30021 | 150.96391 | 33926 ft | 443 kts | 323° |
| 2026-04-11 08:46 | -23.24828 | 150.92767 | 33916 ft | 443 kts | 323° |
| 2026-04-11 08:46 | -23.19637 | 150.89147 | 33924 ft | 443 kts | 323° |
| 2026-04-11 08:47 | -23.14436 | 150.85525 | 33932 ft | 444 kts | 323° |
| 2026-04-11 08:47 | -23.09269 | 150.81928 | 33925 ft | 444 kts | 323° |
| 2026-04-11 08:48 | -23.04057 | 150.78305 | 33928 ft | 444 kts | 323° |
| 2026-04-11 08:48 | -22.98854 | 150.74690 | 33905 ft | 444 kts | 324° |
| 2026-04-11 08:49 | -22.93645 | 150.71075 | 33919 ft | 444 kts | 324° |
| 2026-04-11 08:49 | -22.88427 | 150.67458 | 33935 ft | 445 kts | 324° |
| 2026-04-11 08:50 | -22.83233 | 150.63859 | 33918 ft | 445 kts | 324° |
| 2026-04-11 08:50 | -22.77973 | 150.60218 | 33921 ft | 446 kts | 324° |
| 2026-04-11 08:51 | -22.72775 | 150.56624 | 33927 ft | 446 kts | 324° |
| 2026-04-11 08:51 | -22.67541 | 150.53008 | 33913 ft | 446 kts | 324° |
| 2026-04-11 08:52 | -22.59690 | 150.47591 | 33921 ft | 446 kts | 324° |
| 2026-04-11 08:52 | -22.54450 | 150.43980 | 33924 ft | 446 kts | 324° |
| 2026-04-11 08:53 | -22.49232 | 150.40386 | 33921 ft | 446 kts | 324° |
| 2026-04-11 08:53 | -22.43995 | 150.36783 | 33919 ft | 446 kts | 324° |
| 2026-04-11 08:54 | -22.38749 | 150.33178 | 33920 ft | 447 kts | 324° |
| 2026-04-11 08:54 | -22.33502 | 150.29574 | 33906 ft | 447 kts | 324° |
| 2026-04-11 08:55 | -22.29134 | 150.26577 | 33921 ft | 447 kts | 324° |
| 2026-04-11 08:55 | -22.22997 | 150.22370 | 33922 ft | 447 kts | 324° |
| 2026-04-11 08:56 | -22.18625 | 150.19375 | 33919 ft | 448 kts | 324° |
| 2026-04-11 08:56 | -22.12499 | 150.15183 | 33914 ft | 449 kts | 324° |
| 2026-04-11 08:57 | -22.08081 | 150.12162 | 33917 ft | 449 kts | 324° |
| 2026-04-11 08:57 | -22.02831 | 150.08576 | 33915 ft | 450 kts | 324° |
| 2026-04-11 08:58 | -21.97541 | 150.04964 | 33906 ft | 451 kts | 325° |
| 2026-04-11 08:58 | -21.92236 | 150.01347 | 33915 ft | 451 kts | 325° |
| 2026-04-11 08:59 | -21.86922 | 149.97726 | 33911 ft | 452 kts | 325° |
| 2026-04-11 08:59 | -21.81599 | 149.94103 | 33912 ft | 452 kts | 325° |
| 2026-04-11 09:00 | -21.76254 | 149.90467 | 33280 ft | 460 kts | 325° |
| 2026-04-11 09:00 | -21.73554 | 149.88631 | 32630 ft | 457 kts | 325° |
| 2026-04-11 09:00 | -21.70858 | 149.86800 | 31924 ft | 458 kts | 325° |
| 2026-04-11 09:01 | -21.68161 | 149.84969 | 31201 ft | 458 kts | 325° |
| 2026-04-11 09:01 | -21.65459 | 149.83135 | 30429 ft | 461 kts | 325° |
| 2026-04-11 09:01 | -21.62757 | 149.81302 | 29873 ft | 457 kts | 325° |
| 2026-04-11 09:01 | -21.60104 | 149.79504 | 29227 ft | 454 kts | 325° |
| 2026-04-11 09:02 | -21.57442 | 149.77701 | 28658 ft | 449 kts | 325° |
| 2026-04-11 09:02 | -21.54811 | 149.75920 | 28098 ft | 445 kts | 325° |
| 2026-04-11 09:02 | -21.52200 | 149.74152 | 27551 ft | 440 kts | 325° |
| 2026-04-11 09:02 | -21.49618 | 149.72404 | 27013 ft | 436 kts | 326° |
| 2026-04-11 09:03 | -21.47062 | 149.70675 | 26484 ft | 432 kts | 326° |
| 2026-04-11 09:03 | -21.44557 | 149.68980 | 25963 ft | 428 kts | 326° |
| 2026-04-11 09:03 | -21.42046 | 149.67282 | 25437 ft | 425 kts | 326° |
| 2026-04-11 09:03 | -21.39543 | 149.65590 | 24894 ft | 423 kts | 326° |
| 2026-04-11 09:04 | -21.37060 | 149.63912 | 24367 ft | 420 kts | 326° |
| 2026-04-11 09:04 | -21.34596 | 149.62248 | 23827 ft | 418 kts | 326° |
| 2026-04-11 09:04 | -21.32140 | 149.60590 | 23266 ft | 416 kts | 326° |
| 2026-04-11 09:04 | -21.29696 | 149.58941 | 22696 ft | 413 kts | 326° |
| 2026-04-11 09:05 | -21.27275 | 149.57308 | 22163 ft | 409 kts | 326° |
| 2026-04-11 09:05 | -21.24878 | 149.55692 | 21638 ft | 406 kts | 326° |
| 2026-04-11 09:05 | -21.22497 | 149.54088 | 21125 ft | 402 kts | 326° |
| 2026-04-11 09:05 | -21.20135 | 149.52496 | 20619 ft | 399 kts | 326° |
| 2026-04-11 09:06 | -21.17791 | 149.50918 | 20115 ft | 397 kts | 326° |
| 2026-04-11 09:06 | -21.15462 | 149.49350 | 19591 ft | 395 kts | 326° |
| 2026-04-11 09:06 | -21.13142 | 149.47788 | 19098 ft | 393 kts | 326° |
| 2026-04-11 09:06 | -21.10830 | 149.46233 | 18586 ft | 391 kts | 326° |
| 2026-04-11 09:07 | -21.08527 | 149.44684 | 18057 ft | 390 kts | 326° |
| 2026-04-11 09:07 | -21.06235 | 149.43144 | 17511 ft | 388 kts | 326° |
| 2026-04-11 09:07 | -21.03957 | 149.41613 | 17004 ft | 385 kts | 326° |
| 2026-04-11 09:07 | -21.01690 | 149.40090 | 16504 ft | 383 kts | 326° |
| 2026-04-11 09:08 | -20.99465 | 149.38596 | 16018 ft | 381 kts | 326° |
| 2026-04-11 09:08 | -20.97226 | 149.37094 | 15516 ft | 380 kts | 326° |
| 2026-04-11 09:08 | -20.94992 | 149.35595 | 15027 ft | 378 kts | 326° |
| 2026-04-11 09:08 | -20.92764 | 149.34101 | 14530 ft | 377 kts | 326° |
| 2026-04-11 09:09 | -20.90542 | 149.32610 | 14030 ft | 377 kts | 326° |
| 2026-04-11 09:09 | -20.88323 | 149.31123 | 13515 ft | 376 kts | 326° |
| 2026-04-11 09:09 | -20.86107 | 149.29638 | 12985 ft | 375 kts | 326° |
| 2026-04-11 09:09 | -20.83902 | 149.28162 | 12488 ft | 373 kts | 326° |
| 2026-04-11 09:10 | -20.81705 | 149.26690 | 11969 ft | 372 kts | 327° |
| 2026-04-11 09:10 | -20.79513 | 149.25222 | 11487 ft | 371 kts | 327° |
| 2026-04-11 09:10 | -20.77332 | 149.23763 | 10982 ft | 370 kts | 327° |
| 2026-04-11 09:10 | -20.75202 | 149.22338 | 10788 ft | 361 kts | 327° |
| 2026-04-11 09:11 | -20.73099 | 149.20932 | 10595 ft | 352 kts | 327° |
| 2026-04-11 09:11 | -20.71046 | 149.19561 | 10441 ft | 343 kts | 328° |
| 2026-04-11 09:11 | -20.69049 | 149.18226 | 10293 ft | 334 kts | 328° |
| 2026-04-11 09:11 | -20.67101 | 149.16925 | 10184 ft | 325 kts | 328° |
| 2026-04-11 09:12 | -20.65208 | 149.15660 | 10064 ft | 317 kts | 328° |
| 2026-04-11 09:12 | -20.63361 | 149.14427 | 9975 ft | 308 kts | 328° |
| 2026-04-11 09:12 | -20.61573 | 149.13233 | 9764 ft | 304 kts | 328° |
| 2026-04-11 09:12 | -20.59750 | 149.12017 | 9294 ft | 310 kts | 328° |
| 2026-04-11 09:13 | -20.57909 | 149.10793 | 8902 ft | 313 kts | 328° |
| 2026-04-11 09:13 | -20.56052 | 149.09558 | 8534 ft | 315 kts | 328° |
| 2026-04-11 09:13 | -20.54194 | 149.08317 | 8180 ft | 316 kts | 328° |
| 2026-04-11 09:13 | -20.52329 | 149.07071 | 7821 ft | 317 kts | 328° |
| 2026-04-11 09:14 | -20.50451 | 149.05820 | 7473 ft | 320 kts | 328° |
| 2026-04-11 09:14 | -20.48554 | 149.04555 | 7111 ft | 321 kts | 327° |
| 2026-04-11 09:14 | -20.46656 | 149.03290 | 6776 ft | 322 kts | 327° |
| 2026-04-11 09:14 | -20.44760 | 149.02028 | 6438 ft | 319 kts | 327° |
| 2026-04-11 09:15 | -20.42896 | 149.00787 | 6116 ft | 311 kts | 327° |
| 2026-04-11 09:15 | -20.41120 | 148.99605 | 5962 ft | 298 kts | 327° |
| 2026-04-11 09:15 | -20.39394 | 148.98457 | 5806 ft | 287 kts | 328° |
| 2026-04-11 09:15 | -20.37731 | 148.97352 | 5653 ft | 276 kts | 327° |
| 2026-04-11 09:16 | -20.36158 | 148.96324 | 5521 ft | 265 kts | 333° |
| 2026-04-11 09:16 | -20.34432 | 148.95862 | 5380 ft | 251 kts | 5° |
| 2026-04-11 09:16 | -20.32711 | 148.96116 | 5118 ft | 250 kts | 17° |
| 2026-04-11 09:16 | -20.31050 | 148.96537 | 4865 ft | 251 kts | 18° |
| 2026-04-11 09:17 | -20.29355 | 148.96980 | 4643 ft | 249 kts | 18° |
| 2026-04-11 09:17 | -20.27689 | 148.97404 | 4397 ft | 242 kts | 20° |
| 2026-04-11 09:17 | -20.26092 | 148.97828 | 4312 ft | 232 kts | 4° |
| 2026-04-11 09:17 | -20.24568 | 148.97464 | 4228 ft | 220 kts | 331° |
| 2026-04-11 09:18 | -20.23395 | 148.96471 | 3867 ft | 216 kts | 308° |
| 2026-04-11 09:18 | -20.22621 | 148.95141 | 3548 ft | 208 kts | 289° |
| 2026-04-11 09:18 | -20.22229 | 148.93749 | 3394 ft | 187 kts | 274° |
| 2026-04-11 09:18 | -20.22251 | 148.92408 | 2980 ft | 180 kts | 253° |
| 2026-04-11 09:19 | -20.22679 | 148.91195 | 2490 ft | 173 kts | 237° |
| 2026-04-11 09:19 | -20.23374 | 148.90165 | 1948 ft | 170 kts | 222° |
| 2026-04-11 09:19 | -20.24262 | 148.89409 | 1624 ft | 154 kts | 206° |
| 2026-04-11 09:19 | -20.25208 | 148.88968 | 1567 ft | 147 kts | 193° |
| 2026-04-11 09:20 | -20.26214 | 148.88786 | 1495 ft | 144 kts | 178° |
| 2026-04-11 09:20 | -20.27195 | 148.88867 | 1485 ft | 140 kts | 166° |
| 2026-04-11 09:20 | -20.28106 | 148.89203 | 1487 ft | 140 kts | 149° |
| 2026-04-11 09:20 | -20.28925 | 148.89738 | 1493 ft | 137 kts | 144° |
| 2026-04-11 09:21 | -20.29713 | 148.90331 | 1346 ft | 139 kts | 142° |
| 2026-04-11 09:21 | -20.30468 | 148.90930 | 1175 ft | 136 kts | 142° |
| 2026-04-11 09:21 | -20.31205 | 148.91521 | 1005 ft | 131 kts | 142° |
| 2026-04-11 09:21 | -20.31939 | 148.92109 | 849 ft | 134 kts | 140° |
| 2026-04-11 09:22 | -20.32698 | 148.92719 | 668 ft | 138 kts | 141° |
| 2026-04-11 09:22 | -20.33456 | 148.93327 | 483 ft | 135 kts | 141° |
| 2026-04-11 09:22 | -20.34197 | 148.93923 | 294 ft | 134 kts | 140° |
| 2026-04-11 09:22 | -20.34930 | 148.94505 | 99 ft | 133 kts | 139° |
| 2026-04-11 09:23 | -20.35618 | 148.95062 | 23 ft | 89 kts | 143° |
| 2026-04-11 09:23 | -20.35864 | 148.95260 | 23 ft | 25 kts | 144° |
| 2026-04-11 09:23 | -20.35997 | 148.95366 | 19 ft | 23 kts | 142° |
| 2026-04-11 09:23 | -20.36122 | 148.95469 | 20 ft | 22 kts | 144° |
| 2026-04-11 09:24 | -20.36247 | 148.95565 | 20 ft | 22 kts | 143° |
| 2026-04-11 09:24 | -20.36362 | 148.95635 | 22 ft | 15 kts | 179° |
| 2026-04-11 09:24 | -20.36404 | 148.95673 | 21 ft | 7 kts | 51° |
| 2026-04-11 09:24 | -20.36357 | 148.95654 | 22 ft | 11 kts | 320° |
| 2026-04-11 09:25 | -20.36267 | 148.95582 | 20 ft | 21 kts | 323° |
| 2026-04-11 09:25 | -20.36130 | 148.95473 | 22 ft | 28 kts | 323° |
| 2026-04-11 09:25 | -20.35977 | 148.95349 | 19 ft | 27 kts | 323° |
| 2026-04-11 09:25 | -20.35833 | 148.95233 | 22 ft | 25 kts | 323° |
| 2026-04-11 09:26 | -20.35698 | 148.95125 | 22 ft | 23 kts | 323° |
| 2026-04-11 09:26 | -20.35570 | 148.95023 | 23 ft | 23 kts | 323° |
| 2026-04-11 09:26 | -20.35452 | 148.94932 | 21 ft | 17 kts | 338° |
| 2026-04-11 09:26 | -20.35360 | 148.94996 | 21 ft | 17 kts | 27° |
| 2026-04-11 09:27 | -20.35295 | 148.94971 | 19 ft | 8 kts | 323° |
| 2026-04-11 09:27 | -20.35250 | 148.94933 | 19 ft | 8 kts | 311° |
| 2026-04-11 09:27 | -20.35224 | 148.94901 | 20 ft | 2 kts | 310° |
| 2026-04-11 09:27 | -20.35221 | 148.94896 | 20 ft | 0 kts | 310° |
| 2026-04-11 09:28 | -20.35220 | 148.94895 | 19 ft | 0 kts | 310° |
| 2026-04-11 09:28 | -20.34923 | 148.94499 | 100 ft | 134 kts | 139° |
| 2026-04-11 09:28 | -20.35587 | 148.95038 | 23 ft | 96 kts | 143° |
| 2026-04-11 09:29 | -20.35336 | 148.94834 | 24 ft | 129 kts | 139° |
| 2026-04-11 09:29 | -20.35304 | 148.94807 | 23 ft | 130 kts | 139° |
| 2026-04-11 09:29 | -20.35789 | 148.95200 | 23 ft | 37 kts | 142° |
| 2026-04-11 09:29 | -20.34238 | 148.93954 | 279 ft | 134 kts | 137° |
| 2026-04-11 09:30 | -20.35023 | 148.94580 | 67 ft | 134 kts | 139° |
| 2026-04-11 09:30 | -20.34670 | 148.94294 | 168 ft | 138 kts | 139° |
| 2026-04-11 09:30 | -20.34463 | 148.94130 | 223 ft | 140 kts | 139° |
| 2026-04-11 09:31 | -20.34362 | 148.94051 | 249 ft | 133 kts | 140° |
| 2026-04-11 09:31 | -20.34670 | 148.94294 | 168 ft | 132 kts | 139° |
| 2026-04-11 09:33 | -20.35092 | 148.94638 | 31 ft | 132 kts | 139° |
| 2026-04-11 09:33 | -20.35459 | 148.94948 | 21 ft | 0 kts | 144° |
| 2026-04-11 09:33 | -20.35047 | 148.94601 | 37 ft | 131 kts | 139° |
| 2026-04-11 09:34 | -20.34929 | 148.94504 | 91 ft | 133 kts | 139° |
| 2026-04-11 09:34 | -20.35615 | 148.95089 | 22 ft | 95 kts | 149° |
| 2026-04-11 09:34 | -20.35868 | 148.95266 | 22 ft | 16 kts | 143° |
| 2026-04-11 09:34 | -20.35889 | 148.95283 | 21 ft | 1 kts | 143° |
| 2026-04-11 09:35 | -20.34672 | 148.94296 | 168 ft | 152 kts | 139° |
| 2026-04-11 09:35 | -20.35047 | 148.94603 | 654 ft | 411 kts | 141° |
| 2026-04-11 09:35 | -20.35995 | 148.96109 | 1033 ft | 247 kts | 79° |
| 2026-04-11 09:35 | -20.34704 | 148.97425 | 1042 ft | 298 kts | 9° |
| 2026-04-11 09:36 | -20.32792 | 148.96693 | 1071 ft | 293 kts | 323° |
| 2026-04-11 09:36 | -20.31793 | 148.95023 | 793 ft | 271 kts | 269° |
| 2026-04-11 09:36 | -20.32553 | 148.93535 | 1013 ft | 200 kts | 190° |
| 2026-04-11 09:36 | -20.33826 | 148.93611 | 636 ft | 188 kts | 146° |
| 2026-04-11 09:37 | -20.34874 | 148.94454 | 114 ft | 188 kts | 140° |
| 2026-04-11 09:37 | -20.35846 | 148.95242 | 23 ft | 153 kts | 143° |
| 2026-04-11 09:37 | -20.35274 | 148.94780 | 28 ft | 181 kts | 140° |
| 2026-04-11 09:37 | -20.35654 | 148.95087 | 26 ft | 168 kts | 140° |